sensor_id;sensor_type;location;lat;lon;timestamp;P1;durP1;ratioP1;P2;durP2;ratioP2
39266;SDS011;24967;51.154;13.812;2023-09-08T00:00:00;6.35;;;5.68;;
39266;SDS011;24967;51.154;13.812;2023-09-08T00:02:26;6.47;;;5.32;;
39266;SDS011;24967;51.154;13.812;2023-09-08T00:04:55;6.30;;;5.45;;
39266;SDS011;24967;51.154;13.812;2023-09-08T00:07:21;5.80;;;5.30;;
39266;SDS011;24967;51.154;13.812;2023-09-08T00:09:48;6.53;;;5.68;;
39266;SDS011;24967;51.154;13.812;2023-09-08T00:12:14;8.73;;;5.78;;
39266;SDS011;24967;51.154;13.812;2023-09-08T00:17:17;6.40;;;5.63;;
39266;SDS011;24967;51.154;13.812;2023-09-08T00:19:44;5.97;;;5.38;;
39266;SDS011;24967;51.154;13.812;2023-09-08T00:22:10;6.50;;;5.43;;
39266;SDS011;24967;51.154;13.812;2023-09-08T00:24:37;7.05;;;5.45;;
39266;SDS011;24967;51.154;13.812;2023-09-08T00:27:04;6.30;;;5.68;;
39266;SDS011;24967;51.154;13.812;2023-09-08T00:29:30;6.15;;;5.63;;
39266;SDS011;24967;51.154;13.812;2023-09-08T00:31:57;6.63;;;5.90;;
39266;SDS011;24967;51.154;13.812;2023-09-08T00:34:25;6.72;;;5.43;;
39266;SDS011;24967;51.154;13.812;2023-09-08T00:36:51;6.43;;;5.55;;
39266;SDS011;24967;51.154;13.812;2023-09-08T00:39:18;6.95;;;5.55;;
39266;SDS011;24967;51.154;13.812;2023-09-08T00:41:44;6.38;;;5.78;;
39266;SDS011;24967;51.154;13.812;2023-09-08T00:44:11;7.68;;;6.00;;
39266;SDS011;24967;51.154;13.812;2023-09-08T00:46:37;7.15;;;5.85;;
39266;SDS011;24967;51.154;13.812;2023-09-08T00:49:04;6.50;;;5.88;;
39266;SDS011;24967;51.154;13.812;2023-09-08T00:51:32;7.10;;;5.88;;
39266;SDS011;24967;51.154;13.812;2023-09-08T00:54:00;6.60;;;5.85;;
39266;SDS011;24967;51.154;13.812;2023-09-08T00:56:27;7.05;;;5.55;;
39266;SDS011;24967;51.154;13.812;2023-09-08T00:58:55;6.57;;;5.63;;
39266;SDS011;24967;51.154;13.812;2023-09-08T01:01:21;6.20;;;5.60;;
39266;SDS011;24967;51.154;13.812;2023-09-08T01:03:48;6.47;;;5.80;;
39266;SDS011;24967;51.154;13.812;2023-09-08T01:06:14;7.13;;;6.28;;
39266;SDS011;24967;51.154;13.812;2023-09-08T01:08:43;7.65;;;5.65;;
39266;SDS011;24967;51.154;13.812;2023-09-08T01:11:09;7.22;;;5.97;;
39266;SDS011;24967;51.154;13.812;2023-09-08T01:13:36;6.40;;;5.78;;
39266;SDS011;24967;51.154;13.812;2023-09-08T01:16:03;7.22;;;6.15;;
39266;SDS011;24967;51.154;13.812;2023-09-08T01:18:29;6.03;;;5.53;;
39266;SDS011;24967;51.154;13.812;2023-09-08T01:21:03;20.35;;;6.90;;
39266;SDS011;24967;51.154;13.812;2023-09-08T01:23:42;6.38;;;5.78;;
39266;SDS011;24967;51.154;13.812;2023-09-08T01:26:24;7.65;;;6.22;;
39266;SDS011;24967;51.154;13.812;2023-09-08T01:28:57;7.43;;;5.55;;
39266;SDS011;24967;51.154;13.812;2023-09-08T01:31:25;6.35;;;5.55;;
39266;SDS011;24967;51.154;13.812;2023-09-08T01:33:52;6.28;;;5.68;;
39266;SDS011;24967;51.154;13.812;2023-09-08T01:36:18;7.63;;;6.18;;
39266;SDS011;24967;51.154;13.812;2023-09-08T01:38:45;7.72;;;5.93;;
39266;SDS011;24967;51.154;13.812;2023-09-08T01:41:11;10.10;;;5.40;;
39266;SDS011;24967;51.154;13.812;2023-09-08T01:43:39;6.93;;;5.95;;
39266;SDS011;24967;51.154;13.812;2023-09-08T01:46:05;6.13;;;5.10;;
39266;SDS011;24967;51.154;13.812;2023-09-08T01:48:32;6.07;;;5.50;;
39266;SDS011;24967;51.154;13.812;2023-09-08T01:50:58;10.73;;;6.85;;
39266;SDS011;24967;51.154;13.812;2023-09-08T01:53:25;6.13;;;5.60;;
39266;SDS011;24967;51.154;13.812;2023-09-08T01:56:00;8.82;;;6.40;;
39266;SDS011;24967;51.154;13.812;2023-09-08T01:58:27;7.38;;;5.90;;
39266;SDS011;24967;51.154;13.812;2023-09-08T02:00:57;9.38;;;5.88;;
39266;SDS011;24967;51.154;13.812;2023-09-08T02:03:28;8.85;;;5.80;;
39266;SDS011;24967;51.154;13.812;2023-09-08T02:05:54;8.48;;;6.25;;
39266;SDS011;24967;51.154;13.812;2023-09-08T02:08:21;7.45;;;6.65;;
39266;SDS011;24967;51.154;13.812;2023-09-08T02:10:47;6.88;;;6.25;;
39266;SDS011;24967;51.154;13.812;2023-09-08T02:13:14;7.40;;;6.03;;
39266;SDS011;24967;51.154;13.812;2023-09-08T02:15:40;11.57;;;6.57;;
39266;SDS011;24967;51.154;13.812;2023-09-08T02:18:08;7.32;;;5.72;;
39266;SDS011;24967;51.154;13.812;2023-09-08T02:20:35;8.25;;;5.80;;
39266;SDS011;24967;51.154;13.812;2023-09-08T02:23:03;7.97;;;5.75;;
39266;SDS011;24967;51.154;13.812;2023-09-08T02:25:31;8.00;;;5.88;;
39266;SDS011;24967;51.154;13.812;2023-09-08T02:27:57;8.13;;;5.72;;
39266;SDS011;24967;51.154;13.812;2023-09-08T02:30:24;7.05;;;5.70;;
39266;SDS011;24967;51.154;13.812;2023-09-08T02:32:50;6.63;;;5.97;;
39266;SDS011;24967;51.154;13.812;2023-09-08T02:35:18;7.85;;;5.85;;
39266;SDS011;24967;51.154;13.812;2023-09-08T02:37:44;6.25;;;5.65;;
39266;SDS011;24967;51.154;13.812;2023-09-08T02:40:11;7.40;;;5.90;;
39266;SDS011;24967;51.154;13.812;2023-09-08T02:42:37;6.90;;;5.93;;
39266;SDS011;24967;51.154;13.812;2023-09-08T02:45:04;6.30;;;5.45;;
39266;SDS011;24967;51.154;13.812;2023-09-08T02:47:32;9.48;;;6.47;;
39266;SDS011;24967;51.154;13.812;2023-09-08T02:49:58;6.13;;;5.53;;
39266;SDS011;24967;51.154;13.812;2023-09-08T02:52:26;6.75;;;5.90;;
39266;SDS011;24967;51.154;13.812;2023-09-08T02:54:52;6.40;;;5.80;;
39266;SDS011;24967;51.154;13.812;2023-09-08T02:57:19;5.93;;;5.43;;
39266;SDS011;24967;51.154;13.812;2023-09-08T02:59:48;6.15;;;5.55;;
39266;SDS011;24967;51.154;13.812;2023-09-08T03:02:15;6.85;;;6.20;;
39266;SDS011;24967;51.154;13.812;2023-09-08T03:04:42;8.57;;;6.43;;
39266;SDS011;24967;51.154;13.812;2023-09-08T03:07:08;7.50;;;5.90;;
39266;SDS011;24967;51.154;13.812;2023-09-08T03:09:36;6.85;;;6.00;;
39266;SDS011;24967;51.154;13.812;2023-09-08T03:12:03;7.93;;;6.38;;
39266;SDS011;24967;51.154;13.812;2023-09-08T03:14:30;6.20;;;5.57;;
39266;SDS011;24967;51.154;13.812;2023-09-08T03:16:56;6.65;;;6.00;;
39266;SDS011;24967;51.154;13.812;2023-09-08T03:19:23;8.38;;;7.07;;
39266;SDS011;24967;51.154;13.812;2023-09-08T03:21:49;7.53;;;6.80;;
39266;SDS011;24967;51.154;13.812;2023-09-08T03:24:16;7.60;;;6.53;;
39266;SDS011;24967;51.154;13.812;2023-09-08T03:26:44;7.53;;;6.43;;
39266;SDS011;24967;51.154;13.812;2023-09-08T03:29:10;7.70;;;6.53;;
39266;SDS011;24967;51.154;13.812;2023-09-08T03:31:37;7.25;;;6.55;;
39266;SDS011;24967;51.154;13.812;2023-09-08T03:34:03;7.45;;;6.18;;
39266;SDS011;24967;51.154;13.812;2023-09-08T03:36:30;7.13;;;6.35;;
39266;SDS011;24967;51.154;13.812;2023-09-08T03:39:00;6.78;;;6.07;;
39266;SDS011;24967;51.154;13.812;2023-09-08T03:41:27;7.32;;;6.45;;
39266;SDS011;24967;51.154;13.812;2023-09-08T03:43:55;9.63;;;6.50;;
39266;SDS011;24967;51.154;13.812;2023-09-08T03:46:21;6.88;;;6.30;;
39266;SDS011;24967;51.154;13.812;2023-09-08T03:48:49;6.68;;;5.97;;
39266;SDS011;24967;51.154;13.812;2023-09-08T03:51:15;6.95;;;5.95;;
39266;SDS011;24967;51.154;13.812;2023-09-08T03:53:42;6.97;;;6.28;;
39266;SDS011;24967;51.154;13.812;2023-09-08T03:56:09;7.53;;;6.72;;
39266;SDS011;24967;51.154;13.812;2023-09-08T03:58:35;6.57;;;5.93;;
39266;SDS011;24967;51.154;13.812;2023-09-08T04:01:03;6.78;;;6.03;;
39266;SDS011;24967;51.154;13.812;2023-09-08T04:03:29;7.22;;;6.53;;
39266;SDS011;24967;51.154;13.812;2023-09-08T04:05:56;8.80;;;6.43;;
39266;SDS011;24967;51.154;13.812;2023-09-08T04:08:22;8.68;;;6.90;;
39266;SDS011;24967;51.154;13.812;2023-09-08T04:10:49;8.57;;;6.70;;
39266;SDS011;24967;51.154;13.812;2023-09-08T04:13:16;8.40;;;6.72;;
39266;SDS011;24967;51.154;13.812;2023-09-08T04:15:42;6.15;;;5.53;;
39266;SDS011;24967;51.154;13.812;2023-09-08T04:18:10;7.97;;;6.40;;
39266;SDS011;24967;51.154;13.812;2023-09-08T04:20:36;7.55;;;6.53;;
39266;SDS011;24967;51.154;13.812;2023-09-08T04:23:03;7.20;;;6.50;;
39266;SDS011;24967;51.154;13.812;2023-09-08T04:25:30;7.07;;;6.30;;
39266;SDS011;24967;51.154;13.812;2023-09-08T04:27:56;10.15;;;6.55;;
39266;SDS011;24967;51.154;13.812;2023-09-08T04:30:23;7.40;;;6.63;;
39266;SDS011;24967;51.154;13.812;2023-09-08T04:32:49;7.28;;;6.50;;
39266;SDS011;24967;51.154;13.812;2023-09-08T04:35:17;10.23;;;7.57;;
39266;SDS011;24967;51.154;13.812;2023-09-08T04:37:44;9.73;;;7.00;;
39266;SDS011;24967;51.154;13.812;2023-09-08T04:40:10;7.85;;;6.88;;
39266;SDS011;24967;51.154;13.812;2023-09-08T04:42:37;8.85;;;7.32;;
39266;SDS011;24967;51.154;13.812;2023-09-08T04:45:04;8.27;;;7.28;;
39266;SDS011;24967;51.154;13.812;2023-09-08T04:47:31;10.38;;;7.28;;
39266;SDS011;24967;51.154;13.812;2023-09-08T04:49:57;10.02;;;7.55;;
39266;SDS011;24967;51.154;13.812;2023-09-08T04:52:25;8.98;;;7.88;;
39266;SDS011;24967;51.154;13.812;2023-09-08T04:54:51;8.50;;;7.20;;
39266;SDS011;24967;51.154;13.812;2023-09-08T04:57:18;9.10;;;7.80;;
39266;SDS011;24967;51.154;13.812;2023-09-08T04:59:45;9.30;;;7.32;;
39266;SDS011;24967;51.154;13.812;2023-09-08T05:02:12;9.93;;;7.72;;
39266;SDS011;24967;51.154;13.812;2023-09-08T05:04:39;8.35;;;7.50;;
39266;SDS011;24967;51.154;13.812;2023-09-08T05:07:05;9.63;;;8.05;;
39266;SDS011;24967;51.154;13.812;2023-09-08T05:09:33;11.18;;;7.90;;
39266;SDS011;24967;51.154;13.812;2023-09-08T05:11:59;8.50;;;7.65;;
39266;SDS011;24967;51.154;13.812;2023-09-08T05:14:26;8.43;;;7.32;;
39266;SDS011;24967;51.154;13.812;2023-09-08T05:16:52;8.68;;;7.50;;
39266;SDS011;24967;51.154;13.812;2023-09-08T05:19:20;8.57;;;7.45;;
39266;SDS011;24967;51.154;13.812;2023-09-08T05:21:49;10.60;;;7.88;;
39266;SDS011;24967;51.154;13.812;2023-09-08T05:24:16;9.02;;;8.13;;
39266;SDS011;24967;51.154;13.812;2023-09-08T05:26:44;9.70;;;7.80;;
39266;SDS011;24967;51.154;13.812;2023-09-08T05:29:10;8.02;;;7.13;;
39266;SDS011;24967;51.154;13.812;2023-09-08T05:31:37;7.50;;;6.80;;
39266;SDS011;24967;51.154;13.812;2023-09-08T05:34:03;7.75;;;6.53;;
39266;SDS011;24967;51.154;13.812;2023-09-08T05:36:30;7.20;;;6.32;;
39266;SDS011;24967;51.154;13.812;2023-09-08T05:38:58;7.75;;;7.05;;
39266;SDS011;24967;51.154;13.812;2023-09-08T05:41:24;8.93;;;7.55;;
39266;SDS011;24967;51.154;13.812;2023-09-08T05:43:52;7.82;;;6.88;;
39266;SDS011;24967;51.154;13.812;2023-09-08T05:46:19;7.80;;;7.10;;
39266;SDS011;24967;51.154;13.812;2023-09-08T05:48:45;7.22;;;6.53;;
39266;SDS011;24967;51.154;13.812;2023-09-08T09:08:11;3.42;;;3.22;;
39266;SDS011;24967;51.154;13.812;2023-09-08T09:10:39;3.67;;;3.35;;
39266;SDS011;24967;51.154;13.812;2023-09-08T09:13:05;3.50;;;3.30;;
39266;SDS011;24967;51.154;13.812;2023-09-08T09:15:32;3.50;;;3.30;;
39266;SDS011;24967;51.154;13.812;2023-09-08T09:18:02;3.90;;;3.25;;
39266;SDS011;24967;51.154;13.812;2023-09-08T09:20:30;3.22;;;3.03;;
39266;SDS011;24967;51.154;13.812;2023-09-08T09:22:56;3.70;;;3.40;;
39266;SDS011;24967;51.154;13.812;2023-09-08T09:25:25;3.75;;;3.45;;
39266;SDS011;24967;51.154;13.812;2023-09-08T09:27:53;4.28;;;3.88;;
39266;SDS011;24967;51.154;13.812;2023-09-08T09:30:21;3.40;;;3.10;;
39266;SDS011;24967;51.154;13.812;2023-09-08T09:32:48;4.25;;;3.00;;
39266;SDS011;24967;51.154;13.812;2023-09-08T09:35:24;3.75;;;3.55;;
39266;SDS011;24967;51.154;13.812;2023-09-08T09:38:05;3.58;;;3.28;;
39266;SDS011;24967;51.154;13.812;2023-09-08T09:40:34;4.75;;;3.42;;
39266;SDS011;24967;51.154;13.812;2023-09-08T09:43:01;3.42;;;3.13;;
39266;SDS011;24967;51.154;13.812;2023-09-08T09:45:28;3.58;;;3.38;;
39266;SDS011;24967;51.154;13.812;2023-09-08T09:47:55;3.92;;;3.63;;
39266;SDS011;24967;51.154;13.812;2023-09-08T09:50:26;3.50;;;3.25;;
39266;SDS011;24967;51.154;13.812;2023-09-08T09:52:56;7.47;;;3.85;;
39266;SDS011;24967;51.154;13.812;2023-09-08T09:55:23;5.45;;;3.58;;
39266;SDS011;24967;51.154;13.812;2023-09-08T09:57:52;4.20;;;3.80;;
39266;SDS011;24967;51.154;13.812;2023-09-08T10:00:22;4.40;;;3.13;;
39266;SDS011;24967;51.154;13.812;2023-09-08T10:02:49;5.28;;;3.45;;
39266;SDS011;24967;51.154;13.812;2023-09-08T10:05:17;3.75;;;3.45;;
39266;SDS011;24967;51.154;13.812;2023-09-08T10:07:44;4.13;;;3.25;;
39266;SDS011;24967;51.154;13.812;2023-09-08T10:10:12;4.53;;;3.78;;
39266;SDS011;24967;51.154;13.812;2023-09-08T10:12:39;4.05;;;3.65;;
39266;SDS011;24967;51.154;13.812;2023-09-08T10:15:10;3.88;;;3.55;;
39266;SDS011;24967;51.154;13.812;2023-09-08T10:17:37;4.22;;;3.78;;
39266;SDS011;24967;51.154;13.812;2023-09-08T10:20:07;3.78;;;3.50;;
39266;SDS011;24967;51.154;13.812;2023-09-08T10:22:38;4.88;;;3.63;;
39266;SDS011;24967;51.154;13.812;2023-09-08T10:25:07;3.75;;;3.38;;
39266;SDS011;24967;51.154;13.812;2023-09-08T10:27:34;4.38;;;3.53;;
39266;SDS011;24967;51.154;13.812;2023-09-08T10:30:02;6.05;;;3.67;;
39266;SDS011;24967;51.154;13.812;2023-09-08T10:32:32;4.10;;;3.75;;
39266;SDS011;24967;51.154;13.812;2023-09-08T10:35:01;4.03;;;3.80;;
39266;SDS011;24967;51.154;13.812;2023-09-08T10:37:29;5.80;;;3.75;;
39266;SDS011;24967;51.154;13.812;2023-09-08T10:39:56;3.60;;;3.33;;
39266;SDS011;24967;51.154;13.812;2023-09-08T10:42:47;3.45;;;3.15;;
39266;SDS011;24967;51.154;13.812;2023-09-08T10:45:15;3.80;;;3.58;;
39266;SDS011;24967;51.154;13.812;2023-09-08T10:47:55;4.60;;;3.53;;
39266;SDS011;24967;51.154;13.812;2023-09-08T10:53:03;3.67;;;3.35;;
39266;SDS011;24967;51.154;13.812;2023-09-08T10:55:37;4.07;;;3.75;;
39266;SDS011;24967;51.154;13.812;2023-09-08T10:58:08;3.88;;;3.60;;
39266;SDS011;24967;51.154;13.812;2023-09-08T11:00:45;3.78;;;3.42;;
39266;SDS011;24967;51.154;13.812;2023-09-08T11:03:13;3.15;;;2.95;;
39266;SDS011;24967;51.154;13.812;2023-09-08T11:05:41;3.78;;;3.10;;
39266;SDS011;24967;51.154;13.812;2023-09-08T11:08:09;3.60;;;2.92;;
39266;SDS011;24967;51.154;13.812;2023-09-08T11:10:37;3.53;;;3.20;;
39266;SDS011;24967;51.154;13.812;2023-09-08T11:13:05;3.58;;;3.38;;
39266;SDS011;24967;51.154;13.812;2023-09-08T11:15:32;3.53;;;3.17;;
39266;SDS011;24967;51.154;13.812;2023-09-08T11:18:04;3.85;;;3.55;;
39266;SDS011;24967;51.154;13.812;2023-09-08T11:20:31;3.78;;;3.42;;
39266;SDS011;24967;51.154;13.812;2023-09-08T11:22:57;3.58;;;3.28;;
39266;SDS011;24967;51.154;13.812;2023-09-08T11:25:24;3.30;;;3.10;;
39266;SDS011;24967;51.154;13.812;2023-09-08T11:27:52;3.60;;;3.40;;
39266;SDS011;24967;51.154;13.812;2023-09-08T11:30:19;5.13;;;3.20;;
39266;SDS011;24967;51.154;13.812;2023-09-08T11:32:45;3.72;;;3.47;;
39266;SDS011;24967;51.154;13.812;2023-09-08T11:35:12;3.67;;;3.45;;
39266;SDS011;24967;51.154;13.812;2023-09-08T11:37:40;4.22;;;3.20;;
39266;SDS011;24967;51.154;13.812;2023-09-08T11:40:08;3.50;;;3.20;;
39266;SDS011;24967;51.154;13.812;2023-09-08T11:42:37;3.03;;;2.83;;
39266;SDS011;24967;51.154;13.812;2023-09-08T11:45:10;4.00;;;3.60;;
39266;SDS011;24967;51.154;13.812;2023-09-08T11:47:39;3.38;;;3.00;;
39266;SDS011;24967;51.154;13.812;2023-09-08T11:50:07;3.67;;;2.92;;
39266;SDS011;24967;51.154;13.812;2023-09-08T11:52:36;3.70;;;3.40;;
39266;SDS011;24967;51.154;13.812;2023-09-08T11:55:03;5.10;;;3.20;;
39266;SDS011;24967;51.154;13.812;2023-09-08T11:57:31;3.10;;;2.88;;
39266;SDS011;24967;51.154;13.812;2023-09-08T12:00:00;3.60;;;3.30;;
39266;SDS011;24967;51.154;13.812;2023-09-08T12:02:34;3.20;;;2.90;;
39266;SDS011;24967;51.154;13.812;2023-09-08T12:05:02;3.50;;;3.20;;
39266;SDS011;24967;51.154;13.812;2023-09-08T12:07:29;4.22;;;2.72;;
39266;SDS011;24967;51.154;13.812;2023-09-08T12:09:56;3.10;;;2.90;;
39266;SDS011;24967;51.154;13.812;2023-09-08T12:12:24;3.72;;;3.42;;
39266;SDS011;24967;51.154;13.812;2023-09-08T12:14:51;5.22;;;3.45;;
39266;SDS011;24967;51.154;13.812;2023-09-08T12:17:17;4.07;;;3.40;;
39266;SDS011;24967;51.154;13.812;2023-09-08T12:19:50;3.92;;;3.30;;
39266;SDS011;24967;51.154;13.812;2023-09-08T12:22:17;2.90;;;2.70;;
39266;SDS011;24967;51.154;13.812;2023-09-08T12:24:47;3.30;;;3.03;;
39266;SDS011;24967;51.154;13.812;2023-09-08T12:27:24;5.55;;;3.13;;
39266;SDS011;24967;51.154;13.812;2023-09-08T12:29:54;3.70;;;3.38;;
39266;SDS011;24967;51.154;13.812;2023-09-08T12:32:21;4.97;;;3.00;;
39266;SDS011;24967;51.154;13.812;2023-09-08T12:34:48;5.53;;;3.25;;
39266;SDS011;24967;51.154;13.812;2023-09-08T12:37:16;4.18;;;3.22;;
39266;SDS011;24967;51.154;13.812;2023-09-08T12:39:45;3.45;;;2.97;;
39266;SDS011;24967;51.154;13.812;2023-09-08T12:42:12;4.85;;;3.17;;
39266;SDS011;24967;51.154;13.812;2023-09-08T12:44:38;4.40;;;3.88;;
39266;SDS011;24967;51.154;13.812;2023-09-08T12:47:05;3.38;;;3.05;;
39266;SDS011;24967;51.154;13.812;2023-09-08T12:49:32;4.40;;;3.47;;
39266;SDS011;24967;51.154;13.812;2023-09-08T12:51:59;3.60;;;3.30;;
39266;SDS011;24967;51.154;13.812;2023-09-08T12:54:26;4.80;;;3.55;;
39266;SDS011;24967;51.154;13.812;2023-09-08T12:56:53;5.38;;;3.40;;
39266;SDS011;24967;51.154;13.812;2023-09-08T12:59:19;3.50;;;3.20;;
39266;SDS011;24967;51.154;13.812;2023-09-08T13:01:46;3.70;;;3.42;;
39266;SDS011;24967;51.154;13.812;2023-09-08T13:04:12;3.15;;;2.95;;
39266;SDS011;24967;51.154;13.812;2023-09-08T13:06:39;3.47;;;3.17;;
39266;SDS011;24967;51.154;13.812;2023-09-08T13:09:06;4.35;;;3.22;;
39266;SDS011;24967;51.154;13.812;2023-09-08T13:11:34;4.47;;;3.53;;
39266;SDS011;24967;51.154;13.812;2023-09-08T13:14:01;3.63;;;3.17;;
39266;SDS011;24967;51.154;13.812;2023-09-08T13:16:27;3.58;;;3.38;;
39266;SDS011;24967;51.154;13.812;2023-09-08T13:18:54;3.95;;;3.60;;
39266;SDS011;24967;51.154;13.812;2023-09-08T13:21:21;4.28;;;3.13;;
39266;SDS011;24967;51.154;13.812;2023-09-08T13:23:47;3.35;;;3.13;;
39266;SDS011;24967;51.154;13.812;2023-09-08T13:26:14;3.03;;;2.83;;
39266;SDS011;24967;51.154;13.812;2023-09-08T13:28:42;3.33;;;3.08;;
39266;SDS011;24967;51.154;13.812;2023-09-08T13:31:08;3.42;;;3.10;;
39266;SDS011;24967;51.154;13.812;2023-09-08T13:33:35;3.83;;;3.22;;
39266;SDS011;24967;51.154;13.812;2023-09-08T13:36:02;3.30;;;3.00;;
39266;SDS011;24967;51.154;13.812;2023-09-08T13:38:28;4.60;;;3.50;;
39266;SDS011;24967;51.154;13.812;2023-09-08T13:40:55;4.70;;;3.33;;
39266;SDS011;24967;51.154;13.812;2023-09-08T13:43:21;3.20;;;2.97;;
39266;SDS011;24967;51.154;13.812;2023-09-08T13:45:49;4.75;;;3.25;;
39266;SDS011;24967;51.154;13.812;2023-09-08T13:48:15;4.13;;;3.08;;
39266;SDS011;24967;51.154;13.812;2023-09-08T13:50:42;5.30;;;3.42;;
39266;SDS011;24967;51.154;13.812;2023-09-08T13:53:08;3.80;;;3.50;;
39266;SDS011;24967;51.154;13.812;2023-09-08T13:55:35;3.60;;;3.40;;
39266;SDS011;24967;51.154;13.812;2023-09-08T13:58:01;3.83;;;3.47;;
39266;SDS011;24967;51.154;13.812;2023-09-08T14:00:28;4.90;;;3.30;;
39266;SDS011;24967;51.154;13.812;2023-09-08T14:02:56;3.97;;;3.35;;
39266;SDS011;24967;51.154;13.812;2023-09-08T14:05:22;3.47;;;3.17;;
39266;SDS011;24967;51.154;13.812;2023-09-08T14:07:49;3.45;;;3.15;;
39266;SDS011;24967;51.154;13.812;2023-09-08T14:10:15;3.60;;;3.40;;
39266;SDS011;24967;51.154;13.812;2023-09-08T14:12:42;3.70;;;3.35;;
39266;SDS011;24967;51.154;13.812;2023-09-08T14:15:09;3.30;;;3.00;;
39266;SDS011;24967;51.154;13.812;2023-09-08T14:17:40;4.43;;;3.25;;
39266;SDS011;24967;51.154;13.812;2023-09-08T14:20:08;3.72;;;3.42;;
39266;SDS011;24967;51.154;13.812;2023-09-08T14:22:36;3.28;;;3.08;;
39266;SDS011;24967;51.154;13.812;2023-09-08T14:25:03;3.50;;;3.30;;
39266;SDS011;24967;51.154;13.812;2023-09-08T14:27:30;3.50;;;3.30;;
39266;SDS011;24967;51.154;13.812;2023-09-08T14:29:58;3.45;;;3.15;;
39266;SDS011;24967;51.154;13.812;2023-09-08T14:32:25;5.22;;;3.38;;
39266;SDS011;24967;51.154;13.812;2023-09-08T14:34:51;6.00;;;3.70;;
39266;SDS011;24967;51.154;13.812;2023-09-08T14:37:19;3.83;;;3.50;;
39266;SDS011;24967;51.154;13.812;2023-09-08T14:39:45;3.33;;;3.08;;
39266;SDS011;24967;51.154;13.812;2023-09-08T14:42:12;3.60;;;3.40;;
39266;SDS011;24967;51.154;13.812;2023-09-08T14:44:40;3.70;;;3.50;;
39266;SDS011;24967;51.154;13.812;2023-09-08T14:47:06;3.55;;;3.25;;
39266;SDS011;24967;51.154;13.812;2023-09-08T14:49:33;3.40;;;3.10;;
39266;SDS011;24967;51.154;13.812;2023-09-08T14:52:00;3.25;;;2.97;;
39266;SDS011;24967;51.154;13.812;2023-09-08T14:54:28;3.85;;;3.42;;
39266;SDS011;24967;51.154;13.812;2023-09-08T14:56:54;4.07;;;3.70;;
39266;SDS011;24967;51.154;13.812;2023-09-08T14:59:21;3.65;;;3.38;;
39266;SDS011;24967;51.154;13.812;2023-09-08T15:01:47;3.65;;;3.35;;
39266;SDS011;24967;51.154;13.812;2023-09-08T15:04:16;3.00;;;2.80;;
39266;SDS011;24967;51.154;13.812;2023-09-08T15:06:42;3.45;;;3.15;;
39266;SDS011;24967;51.154;13.812;2023-09-08T15:09:09;4.90;;;3.35;;
39266;SDS011;24967;51.154;13.812;2023-09-08T15:11:37;3.38;;;3.17;;
39266;SDS011;24967;51.154;13.812;2023-09-08T15:14:04;3.45;;;3.22;;
39266;SDS011;24967;51.154;13.812;2023-09-08T15:16:31;3.47;;;3.25;;
39266;SDS011;24967;51.154;13.812;2023-09-08T15:18:57;3.50;;;3.28;;
39266;SDS011;24967;51.154;13.812;2023-09-08T15:21:24;3.30;;;3.10;;
39266;SDS011;24967;51.154;13.812;2023-09-08T15:23:52;4.70;;;3.40;;
39266;SDS011;24967;51.154;13.812;2023-09-08T15:26:19;3.53;;;3.05;;
39266;SDS011;24967;51.154;13.812;2023-09-08T15:28:47;3.65;;;3.33;;
39266;SDS011;24967;51.154;13.812;2023-09-08T15:31:15;3.72;;;3.42;;
39266;SDS011;24967;51.154;13.812;2023-09-08T15:33:42;5.63;;;3.40;;
39266;SDS011;24967;51.154;13.812;2023-09-08T15:36:08;3.55;;;3.17;;
39266;SDS011;24967;51.154;13.812;2023-09-08T15:38:35;3.60;;;3.13;;
39266;SDS011;24967;51.154;13.812;2023-09-08T15:41:14;3.38;;;3.00;;
39266;SDS011;24967;51.154;13.812;2023-09-08T15:43:44;4.32;;;3.25;;
39266;SDS011;24967;51.154;13.812;2023-09-08T15:46:13;3.30;;;3.05;;
39266;SDS011;24967;51.154;13.812;2023-09-08T15:48:40;3.28;;;2.95;;
39266;SDS011;24967;51.154;13.812;2023-09-08T15:51:07;3.42;;;3.15;;
39266;SDS011;24967;51.154;13.812;2023-09-08T15:53:34;3.55;;;2.97;;
39266;SDS011;24967;51.154;13.812;2023-09-08T15:56:01;3.35;;;3.05;;
39266;SDS011;24967;51.154;13.812;2023-09-08T15:58:28;3.25;;;3.05;;
39266;SDS011;24967;51.154;13.812;2023-09-08T16:00:56;3.40;;;3.00;;
39266;SDS011;24967;51.154;13.812;2023-09-08T16:03:23;3.20;;;2.90;;
39266;SDS011;24967;51.154;13.812;2023-09-08T16:05:50;3.38;;;3.08;;
39266;SDS011;24967;51.154;13.812;2023-09-08T16:08:16;3.63;;;3.17;;
39266;SDS011;24967;51.154;13.812;2023-09-08T16:10:43;3.72;;;3.03;;
39266;SDS011;24967;51.154;13.812;2023-09-08T16:13:09;3.42;;;3.13;;
39266;SDS011;24967;51.154;13.812;2023-09-08T16:15:36;4.20;;;3.28;;
39266;SDS011;24967;51.154;13.812;2023-09-08T16:18:05;3.45;;;3.03;;
39266;SDS011;24967;51.154;13.812;2023-09-08T16:20:34;3.15;;;2.90;;
39266;SDS011;24967;51.154;13.812;2023-09-08T16:23:01;3.00;;;2.80;;
39266;SDS011;24967;51.154;13.812;2023-09-08T16:25:28;3.22;;;2.92;;
39266;SDS011;24967;51.154;13.812;2023-09-08T16:27:55;3.90;;;2.90;;
39266;SDS011;24967;51.154;13.812;2023-09-08T16:30:22;4.90;;;3.25;;
39266;SDS011;24967;51.154;13.812;2023-09-08T16:32:48;3.72;;;2.95;;
39266;SDS011;24967;51.154;13.812;2023-09-08T16:35:16;2.92;;;2.72;;
39266;SDS011;24967;51.154;13.812;2023-09-08T16:37:43;3.35;;;3.10;;
39266;SDS011;24967;51.154;13.812;2023-09-08T16:40:10;3.60;;;3.40;;
39266;SDS011;24967;51.154;13.812;2023-09-08T16:42:36;3.15;;;2.95;;
39266;SDS011;24967;51.154;13.812;2023-09-08T16:45:03;3.25;;;2.70;;
39266;SDS011;24967;51.154;13.812;2023-09-08T16:47:31;4.75;;;3.22;;
39266;SDS011;24967;51.154;13.812;2023-09-08T16:49:57;3.20;;;3.00;;
39266;SDS011;24967;51.154;13.812;2023-09-08T16:52:25;3.33;;;3.10;;
39266;SDS011;24967;51.154;13.812;2023-09-08T16:54:52;3.58;;;3.30;;
39266;SDS011;24967;51.154;13.812;2023-09-08T16:57:18;3.33;;;3.03;;
39266;SDS011;24967;51.154;13.812;2023-09-08T16:59:45;3.42;;;3.10;;
39266;SDS011;24967;51.154;13.812;2023-09-08T17:02:11;3.22;;;3.00;;
39266;SDS011;24967;51.154;13.812;2023-09-08T17:04:37;3.42;;;3.15;;
39266;SDS011;24967;51.154;13.812;2023-09-08T17:07:08;3.70;;;3.40;;
39266;SDS011;24967;51.154;13.812;2023-09-08T17:09:36;3.22;;;3.03;;
39266;SDS011;24967;51.154;13.812;2023-09-08T17:12:03;3.40;;;3.20;;
39266;SDS011;24967;51.154;13.812;2023-09-08T17:14:32;3.10;;;2.90;;
39266;SDS011;24967;51.154;13.812;2023-09-08T17:16:58;3.65;;;3.42;;
39266;SDS011;24967;51.154;13.812;2023-09-08T17:19:25;4.55;;;3.25;;
39266;SDS011;24967;51.154;13.812;2023-09-08T17:21:51;3.70;;;3.38;;
39266;SDS011;24967;51.154;13.812;2023-09-08T17:24:18;3.50;;;3.15;;
39266;SDS011;24967;51.154;13.812;2023-09-08T17:26:46;3.72;;;3.30;;
39266;SDS011;24967;51.154;13.812;2023-09-08T17:29:13;4.18;;;3.17;;
39266;SDS011;24967;51.154;13.812;2023-09-08T17:31:40;3.47;;;3.17;;
39266;SDS011;24967;51.154;13.812;2023-09-08T17:34:06;4.22;;;3.60;;
39266;SDS011;24967;51.154;13.812;2023-09-08T17:36:33;3.25;;;2.95;;
39266;SDS011;24967;51.154;13.812;2023-09-08T17:38:59;5.30;;;3.17;;
39266;SDS011;24967;51.154;13.812;2023-09-08T17:41:26;3.60;;;3.40;;
39266;SDS011;24967;51.154;13.812;2023-09-08T17:43:54;3.40;;;3.20;;
39266;SDS011;24967;51.154;13.812;2023-09-08T17:46:20;3.25;;;3.05;;
